Flight Track Log - Related Links

Times and Time Zones

All times are in EDT time to prevent confusion due to time zone crossing. See the N146RF flight status page for this flight to view local times or setup timezone preferences in your user account.

Time Position Orientation Groundspeed Altitude Reporting Facility
EDT Latitude Longitude Course Direction KTS MPH feet Rate Location/Type
Thu 09:25:35 AM 39.0953 -86.5850 159° South 150 173 2,000  Level Indianapolis Center
Thu 09:26:37 AM 39.0583 -86.5644 157° South 142 163 2,600 629 Climbing Indianapolis Center
Thu 09:27:39 AM 39.0194 -86.5414 155° Southeast 146 168 3,300 672 Climbing Indianapolis Center
Thu 09:28:42 AM 38.9814 -86.5183 155° Southeast 147 169 4,000 720 Climbing Indianapolis Center
Thu 09:29:44 AM 38.9367 -86.4908 154° Southeast 147 169 4,800 677 Climbing Indianapolis Center
Thu 09:30:46 AM 38.8997 -86.4686 155° Southeast 147 169 5,400 629 Climbing Indianapolis Center
Thu 09:31:00 AM 38.8607 -86.4423 159° South  Level Estimated
Thu 09:31:48 AM 38.8642 -86.4461 154° Southeast 147 169 6,100  Level Indianapolis Center
Thu 09:32:50 AM 38.8269 -86.4244 156° South 147 169 6,700 581 Climbing Indianapolis Center
Thu 09:33:52 AM 38.7906 -86.4022 155° Southeast 147 169 7,300 581 Climbing Indianapolis Center
Thu 09:34:54 AM 38.7528 -86.3800 155° Southeast 147 169 7,900 581 Climbing Indianapolis Center
Thu 09:35:56 AM 38.7161 -86.3572 154° Southeast 147 169 8,500 629 Climbing Indianapolis Center
Thu 09:36:58 AM 38.6708 -86.3289 154° Southeast 147 169 9,200 624 Climbing Indianapolis Center
Thu 09:38:01 AM 38.6339 -86.3069 155° Southeast 147 169 9,800 576 Climbing Indianapolis Center
Thu 09:39:03 AM 38.5958 -86.2844 155° Southeast 147 169 10,400 532 Climbing Indianapolis Center
Thu 09:40:05 AM 38.5567 -86.2603 154° Southeast 149 171 10,900 532 Climbing Indianapolis Center
Thu 09:41:07 AM 38.5178 -86.2372 155° Southeast 150 173 11,500 532 Climbing Indianapolis Center
Thu 09:42:09 AM 38.4781 -86.2125 154° Southeast 153 176 12,000 532 Climbing Indianapolis Center
Thu 09:43:11 AM 38.4369 -86.1881 155° Southeast 157 181 12,600 581 Climbing Indianapolis Center
Thu 09:44:13 AM 38.3875 -86.1581 155° Southeast 158 182 13,200 576 Climbing Indianapolis Center
Thu 09:45:16 AM 38.3447 -86.1328 155° Southeast 163 188 13,800 528 Climbing Indianapolis Center
Thu 09:46:18 AM 38.3017 -86.1069 155° Southeast 166 191 14,300 484 Climbing Indianapolis Center
Thu 09:47:20 AM 38.2583 -86.0806 154° Southeast 167 192 14,800 484 Climbing Indianapolis Center
Thu 09:48:22 AM 38.2153 -86.0547 155° Southeast 168 193 15,300 484 Climbing Indianapolis Center
Thu 09:49:24 AM 38.1714 -86.0286 155° Southeast 168 193 15,800 484 Climbing Indianapolis Center
Thu 09:50:26 AM 38.1281 -86.0033 155° Southeast 170 196 16,300 484 Climbing Indianapolis Center
Thu 09:51:28 AM 38.0731 -85.9703 155° Southeast 178 205 16,800 480 Climbing Indianapolis Center
Thu 09:52:31 AM 38.0281 -85.9436 155° Southeast 178 205 17,300 432 Climbing Indianapolis Center
Thu 09:53:33 AM 37.9819 -85.9161 155° Southeast 178 205 17,700 435 Climbing Indianapolis Center
Thu 09:54:35 AM 37.9356 -85.8892 155° Southeast 179 206 18,200 484 Climbing Indianapolis Center
Thu 09:55:37 AM 37.8906 -85.8628 155° Southeast 179 206 18,700 435 Climbing Indianapolis Center
Thu 09:56:39 AM 37.8444 -85.8347 154° Southeast 179 206 19,100 484 Climbing Indianapolis Center
Thu 09:57:41 AM 37.7864 -85.8008 155° Southeast 185 213 19,700 484 Climbing Indianapolis Center
Thu 09:58:43 AM 37.7389 -85.7728 155° Southeast 186 214 20,100 387 Climbing Indianapolis Center
Thu 09:59:45 AM 37.6900 -85.7456 156° South 187 215 20,500 432 Climbing Indianapolis Center
Thu 10:00:48 AM 37.6428 -85.7175 155° Southeast 187 215 21,000 432 Climbing Indianapolis Center
Thu 10:01:50 AM 37.5981 -85.6881 152° Southeast 187 215 21,400 387 Climbing Indianapolis Center
Thu 10:02:52 AM 37.5486 -85.6608 156° South 187 215 21,800 435 Climbing Indianapolis Center
Thu 10:03:54 AM 37.4986 -85.6328 156° South 188 216 22,300 435 Climbing Indianapolis Center
Thu 10:04:56 AM 37.4403 -85.5992 155° Southeast 189 217 22,700 339 Climbing Indianapolis Center
Thu 10:05:58 AM 37.3925 -85.5703 154° Southeast 189 217 23,000 145 Climbing Indianapolis Center
Thu 10:07:00 AM 37.3408 -85.5414 156° South 197 227 23,000  Level Indianapolis Center
Thu 10:08:02 AM 37.2869 -85.5092 155° Southeast 201 231 23,000  Level Indianapolis Center
Thu 10:09:05 AM 37.2381 -85.4792 154° Southeast 197 227 23,000  Level Indianapolis Center
Thu 10:10:07 AM 37.1869 -85.4500 156° South 198 228 23,000  Level Indianapolis Center
Thu 10:11:09 AM 37.1356 -85.4208 156° South 198 228 23,000  Level Indianapolis Center
Thu 10:12:11 AM 37.0858 -85.3917 155° Southeast 198 228 23,000  Level Indianapolis Center
Thu 10:13:13 AM 37.0267 -85.3592 156° South 197 227 23,000  Level Indianapolis Center
Thu 10:14:15 AM 36.9772 -85.3300 155° Southeast 197 227 23,000  Level Indianapolis Center
Thu 10:15:17 AM 36.9261 -85.3022 157° South 197 227 23,000  Level Indianapolis Center
Thu 10:16:20 AM 36.8761 -85.2708 153° Southeast 199 229 23,000  Level Indianapolis Center
Thu 10:17:22 AM 36.8250 -85.2431 156° South 199 229 23,000  Level Indianapolis Center
Thu 10:18:24 AM 36.7742 -85.2136 155° Southeast 199 229 23,000  Level Indianapolis Center
Thu 10:19:26 AM 36.7117 -85.1781 155° Southeast 201 231 23,000  Level Indianapolis Center
Thu 10:20:28 AM 36.6597 -85.1481 155° Southeast 201 231 23,000  Level Indianapolis Center
Thu 10:21:30 AM 36.6078 -85.1178 155° Southeast 203 234 23,000  Level Indianapolis Center
Thu 10:22:32 AM 36.5553 -85.0894 157° South 203 234 23,000  Level Indianapolis Center
Thu 10:23:35 AM 36.5028 -85.0586 155° Southeast 204 235 23,000  Level Indianapolis Center
Thu 10:24:37 AM 36.4500 -85.0281 155° Southeast 206 237 23,000  Level Indianapolis Center
Thu 10:25:39 AM 36.3864 -84.9925 156° South 207 238 23,000  Level Indianapolis Center
Thu 10:26:41 AM 36.3325 -84.9631 156° South 207 238 23,000  Level Indianapolis Center
Thu 10:27:43 AM 36.2797 -84.9317 154° Southeast 208 239 23,000  Level Indianapolis Center
Thu 10:28:45 AM 36.2261 -84.9017 156° South 208 239 23,000  Level Indianapolis Center
Thu 10:29:47 AM 36.1708 -84.8706 156° South 212 244 23,000  Level Indianapolis Center
Thu 10:30:50 AM 36.1161 -84.8400 156° South 212 244 23,000  Level Indianapolis Center
Thu 10:31:52 AM 36.0500 -84.8022 155° Southeast 212 244 23,000  Level Indianapolis Center
Thu 10:32:54 AM 35.9939 -84.7706 155° Southeast 217 250 23,000  Level Indianapolis Center
Thu 10:33:56 AM 35.9375 -84.7383 155° Southeast 217 250 23,000  Level Indianapolis Center
Thu 10:34:58 AM 35.8806 -84.7075 156° South 217 250 23,000  Level Indianapolis Center
Thu 10:36:00 AM 35.8239 -84.6767 156° South 218 251 23,000  Level Indianapolis Center
Thu 10:37:19 AM 35.7461 -84.6350 156° South 215 247 23,000  Level Atlanta Center
Thu 10:38:19 AM 35.6897 -84.6064 158° South 215 247 23,000  Level Atlanta Center
Thu 10:39:19 AM 35.6336 -84.5753 156° South 215 247 23,000  Level Atlanta Center
Thu 10:40:19 AM 35.5794 -84.5444 155° Southeast 215 247 23,000  Level Atlanta Center
Thu 10:41:19 AM 35.5317 -84.5186 156° South 215 247 23,000  Level Atlanta Center
Thu 10:42:19 AM 35.4756 -84.4875 156° South 215 247 23,000  Level Atlanta Center
Thu 10:44:19 AM 35.3650 -84.4258 156° South 215 247 23,000  Level Atlanta Center
Thu 10:45:19 AM 35.3108 -84.3978 157° South 215 247 23,000  Level Atlanta Center
Thu 10:46:19 AM 35.2525 -84.3669 157° South 215 247 23,000  Level Atlanta Center
Thu 10:47:19 AM 35.1983 -84.3336 153° Southeast 215 247 23,000  Level Atlanta Center
Thu 10:48:19 AM 35.1442 -84.3056 157° South 215 247 23,000  Level Atlanta Center
Thu 10:49:19 AM 35.0881 -84.2747 156° South 215 247 23,000  Level Atlanta Center
Thu 10:50:19 AM 35.0317 -84.2467 158° South 215 247 23,000  Level Atlanta Center
Thu 10:51:19 AM 34.9753 -84.2161 156° South 215 247 23,000  Level Atlanta Center
Thu 10:52:19 AM 34.9211 -84.1856 155° Southeast 215 247 23,000  Level Atlanta Center
Thu 10:53:19 AM 34.8669 -84.1553 155° Southeast 215 247 23,000  Level Atlanta Center
Thu 10:54:19 AM 34.8086 -84.1247 157° South 215 247 23,000  Level Atlanta Center
Thu 10:55:19 AM 34.7542 -84.0944 155° Southeast 215 247 23,000  Level Atlanta Center
Thu 10:56:19 AM 34.6958 -84.0614 155° Southeast 215 247 23,000  Level Atlanta Center
Thu 10:57:19 AM 34.6375 -84.0286 155° Southeast 215 247 23,000  Level Atlanta Center
Thu 10:58:19 AM 34.5872 -83.9983 154° Southeast 215 247 23,000  Level Atlanta Center
Thu 10:59:19 AM 34.5353 -83.9706 156° South 215 247 23,000  Level Atlanta Center
Thu 11:00:19 AM 34.4747 -83.9406 158° South 215 247 23,000  Level Atlanta Center
Thu 11:01:19 AM 34.4183 -83.9103 156° South 215 247 23,000  Level Atlanta Center
Thu 11:02:19 AM 34.3619 -83.8803 156° South 215 247 23,000  Level Atlanta Center
Thu 11:03:19 AM 34.3033 -83.8503 157° South 215 247 23,000  Level Atlanta Center
Thu 11:04:19 AM 34.2492 -83.8200 155° Southeast 215 247 23,000  Level Atlanta Center
Thu 11:05:19 AM 34.1925 -83.7903 157° South 215 247 23,000  Level Atlanta Center
Thu 11:06:19 AM 34.1361 -83.7603 156° South 215 247 23,000  Level Atlanta Center
Thu 11:07:19 AM 34.0797 -83.7303 156° South 215 247 23,000  Level Atlanta Center
Thu 11:08:19 AM 34.0233 -83.7031 158° South 215 247 23,000  Level Atlanta Center
Thu 11:09:19 AM 33.9669 -83.6706 154° Southeast 215 247 23,000  Level Atlanta Center
Thu 11:10:19 AM 33.9125 -83.6408 156° South 215 247 23,000  Level Atlanta Center
Thu 11:11:19 AM 33.8561 -83.6136 158° South 215 247 23,000  Level Atlanta Center
Thu 11:12:19 AM 33.7975 -83.5814 155° Southeast 215 247 23,000  Level Atlanta Center
Thu 11:13:19 AM 33.7431 -83.5517 156° South 215 247 23,000  Level Atlanta Center
Thu 11:14:19 AM 33.6847 -83.5244 159° South 215 247 23,000  Level Atlanta Center
Thu 11:15:19 AM 33.6322 -83.4925 153° Southeast 215 247 23,000  Level Atlanta Center
Thu 11:16:19 AM 33.5736 -83.4653 159° South 215 247 23,000  Level Atlanta Center
Thu 11:17:19 AM 33.5194 -83.4358 156° South 215 247 23,000  Level Atlanta Center
Thu 11:18:19 AM 33.4608 -83.4064 157° South 215 247 23,000  Level Atlanta Center
Thu 11:19:19 AM 33.4064 -83.3769 156° South 215 247 23,000  Level Atlanta Center
Thu 11:20:19 AM 33.3478 -83.3500 159° South 215 247 23,000  Level Atlanta Center
Thu 11:21:19 AM 33.2933 -83.3206 156° South 215 247 23,000  Level Atlanta Center
Thu 11:22:19 AM 33.2367 -83.2936 158° South 215 247 23,000  Level Atlanta Center
Thu 11:23:19 AM 33.1822 -83.2619 154° Southeast 215 247 23,000  Level Atlanta Center
Thu 11:24:19 AM 33.1258 -83.2328 157° South 215 247 23,000  Level Atlanta Center
Thu 11:25:19 AM 33.0672 -83.2058 159° South 215 247 23,000  Level Atlanta Center
Thu 11:26:19 AM 33.0083 -83.1719 154° Southeast 215 247 23,000  Level Atlanta Center
Thu 11:27:19 AM 32.9539 -83.1453 158° South 215 247 23,000  Level Atlanta Center
Thu 11:28:19 AM 32.8953 -83.1136 156° South 215 247 23,000  Level Atlanta Center
Thu 11:29:19 AM 32.8428 -83.0844 155° Southeast 215 247 23,000  Level Atlanta Center
Thu 11:30:19 AM 32.7906 -83.0578 157° South 215 247 23,000  Level Atlanta Center
Thu 11:31:19 AM 32.7361 -83.0314 158° South 215 247 23,000  Level Atlanta Center
Thu 11:33:05 AM 32.6383 -82.9789 156° South 227 261 23,000  Level Jacksonville Center
Thu 11:34:05 AM 32.5758 -82.9467 157° South 227 261 23,000  Level Jacksonville Center
Thu 11:35:05 AM 32.5256 -82.9222 158° South 227 261 23,000  Level Jacksonville Center
Thu 11:36:05 AM 32.4692 -82.8925 156° South 227 261 23,000  Level Jacksonville Center
Thu 11:37:05 AM 32.4169 -82.8681 158° South 227 261 23,000  Level Jacksonville Center
Thu 11:38:05 AM 32.3544 -82.8336 155° Southeast 222 255 23,000  Level Jacksonville Center
Thu 11:39:05 AM 32.2981 -82.8067 158° South 216 249 23,000  Level Jacksonville Center
Thu 11:40:05 AM 32.2436 -82.7797 157° South 216 249 23,000  Level Jacksonville Center
Thu 11:41:05 AM 32.1872 -82.7503 156° South 216 249 23,000  Level Jacksonville Center
Thu 11:42:05 AM 32.1308 -82.7208 156° South 216 249 23,000  Level Jacksonville Center
Thu 11:43:05 AM 32.0786 -82.6939 156° South 216 249 23,000  Level Jacksonville Center
Thu 11:44:05 AM 32.0203 -82.6647 157° South 216 249 23,000  Level Jacksonville Center
Thu 11:45:05 AM 31.9681 -82.6378 156° South 216 249 23,000  Level Jacksonville Center
Thu 11:46:05 AM 31.9136 -82.6086 156° South 216 249 23,000  Level Jacksonville Center
Thu 11:47:05 AM 31.8572 -82.5819 158° South 216 249 23,000  Level Jacksonville Center
Thu 11:48:05 AM 31.8092 -82.5578 157° South 210 242 23,000  Level Jacksonville Center
Thu 11:49:05 AM 31.7506 -82.5311 159° South 210 242 23,000  Level Jacksonville Center
Thu 11:50:05 AM 31.6961 -82.5019 155° Southeast 210 242 23,000  Level Jacksonville Center
Thu 11:51:05 AM 31.6439 -82.4753 157° South 215 247 23,000  Level Jacksonville Center
Thu 11:52:05 AM 31.5894 -82.4461 155° Southeast 215 247 23,000  Level Jacksonville Center
Thu 11:53:05 AM 31.5350 -82.4197 158° South 215 247 23,000  Level Jacksonville Center
Thu 11:54:05 AM 31.4828 -82.3931 156° South 210 242 23,000  Level Jacksonville Center
Thu 11:55:05 AM 31.4283 -82.3692 159° South 215 247 23,000  Level Jacksonville Center
Thu 11:56:05 AM 31.3761 -82.3403 155° Southeast 215 247 23,000  Level Jacksonville Center
Thu 11:57:05 AM 31.3217 -82.3139 158° South 215 247 23,000  Level Jacksonville Center
Thu 11:58:05 AM 31.2653 -82.2875 158° South 215 247 23,000  Level Jacksonville Center
Thu 11:59:05 AM 31.2108 -82.2633 159° South 215 247 23,000  Level Jacksonville Center
Thu 12:00:05 PM 31.1606 -82.2347 154° Southeast 210 242 23,000  Level Jacksonville Center
Thu 12:01:05 PM 31.1039 -82.2058 156° South 215 247 23,000  Level Jacksonville Center
Thu 12:02:05 PM 31.0517 -82.1772 155° Southeast 215 247 23,000  Level Jacksonville Center
Thu 12:03:05 PM 30.9972 -82.1508 157° South 215 247 23,000  Level Jacksonville Center
Thu 12:04:05 PM 30.9450 -82.1247 157° South 215 247 23,000  Level Jacksonville Center
Thu 12:05:05 PM 30.8903 -82.0986 158° South 215 247 23,000  Level Jacksonville Center
Thu 12:06:05 PM 30.8381 -82.0747 159° South 210 242 23,000  Level Jacksonville Center
Thu 12:07:05 PM 30.7814 -82.0464 157° South 210 242 23,000  Level Jacksonville Center
Thu 12:08:05 PM 30.7269 -82.0200 157° South 215 247 23,000  Level Jacksonville Center
Thu 12:09:05 PM 30.6767 -81.9939 156° South 215 247 23,000  Level Jacksonville Center
Thu 12:10:05 PM 30.6222 -81.9703 160° South 215 247 23,000  Level Jacksonville Center
Thu 12:11:05 PM 30.5678 -81.9444 158° South 215 247 23,000 -250 Level Jacksonville Center
Thu 12:12:05 PM 30.5133 -81.9136 154° Southeast 215 247 22,500 -450 Descending Jacksonville Center
Thu 12:13:05 PM 30.4525 -81.8853 158° South 215 247 22,100 -250 Descending Jacksonville Center
Thu 12:14:05 PM 30.3958 -81.8594 159° South 226 260 22,000 -50 Descending Jacksonville Center
Thu 12:15:05 PM 30.3372 -81.8311 157° South 226 260 22,000  Level Jacksonville Center
Thu 12:16:05 PM 30.2828 -81.8053 158° South 226 260 22,000  Level Jacksonville Center
Thu 12:17:05 PM 30.2283 -81.7772 156° South 221 254 22,000  Level Jacksonville Center
Thu 12:18:05 PM 30.1758 -81.7536 159° South 204 235 22,000  Level Jacksonville Center
Thu 12:19:05 PM 30.1214 -81.7278 158° South 219 252 22,000  Level Jacksonville Center
Thu 12:20:05 PM 30.0667 -81.7022 158° South 209 241 22,000  Level Jacksonville Center
Thu 12:21:05 PM 30.0122 -81.6764 158° South 209 241 22,000  Level Jacksonville Center
Thu 12:22:05 PM 29.9597 -81.6483 155° Southeast 214 246 22,000  Level Jacksonville Center
Thu 12:23:05 PM 29.9053 -81.6228 158° South 214 246 22,000  Level Jacksonville Center
Thu 12:24:05 PM 29.8592 -81.6017 158° South 214 246 22,000  Level Jacksonville Center
Thu 12:25:05 PM 29.8044 -81.5736 156° South 214 246 22,000  Level Jacksonville Center
Thu 12:26:05 PM 29.7522 -81.5506 159° South 214 246 22,000  Level Jacksonville Center
Thu 12:27:05 PM 29.6997 -81.5225 155° Southeast 214 246 22,000  Level Jacksonville Center
Thu 12:28:05 PM 29.6450 -81.4969 158° South 214 246 22,000  Level Jacksonville Center
Thu 12:29:05 PM 29.5906 -81.4739 160° South 214 246 22,000  Level Jacksonville Center
Thu 12:30:05 PM 29.5381 -81.4461 155° Southeast 214 246 22,000  Level Jacksonville Center
Thu 12:31:05 PM 29.4856 -81.4206 157° South 214 246 22,000  Level Jacksonville Center
Thu 12:32:05 PM 29.4353 -81.3997 160° South 207 238 22,000  Level Jacksonville Center
Thu 12:33:05 PM 29.3828 -81.3744 157° South 207 238 22,000  Level Jacksonville Center
Thu 12:34:05 PM 29.3325 -81.3514 158° South 207 238 22,000  Level Jacksonville Center
Thu 12:35:05 PM 29.2778 -81.3261 158° South 207 238 22,000  Level Jacksonville Center
Thu 12:36:05 PM 29.2275 -81.3031 158° South 207 238 22,000  Level Jacksonville Center
Thu 12:37:05 PM 29.1792 -81.2778 155° Southeast 201 231 22,000  Level Jacksonville Center
Thu 12:38:05 PM 29.1286 -81.2547 158° South 196 226 22,000  Level Jacksonville Center
Thu 12:39:05 PM 29.0803 -81.2317 157° South 196 226 22,000  Level Jacksonville Center
Thu 12:40:05 PM 29.0300 -81.2064 156° South 196 226 22,000  Level Jacksonville Center
Thu 12:41:05 PM 28.9817 -81.1861 160° South 196 226 22,000  Level Jacksonville Center
Thu 12:43:26 PM 28.8567 -81.1544 167° South 190 219 22,000  Level Miami Center
Thu 12:44:28 PM 28.8056 -81.1422 168° South 188 216 22,000  Level Miami Center
Thu 12:45:30 PM 28.7539 -81.1308 169° South 188 216 22,000  Level Miami Center
Thu 12:46:32 PM 28.6928 -81.1150 167° South 193 222 22,000  Level Miami Center
Thu 12:47:34 PM 28.6433 -81.1047 170° South 192 221 22,000  Level Miami Center
Thu 12:48:36 PM 28.5872 -81.0933 170° South 192 221 22,000  Level Miami Center
Thu 12:49:38 PM 28.5350 -81.0808 168° South 192 221 22,000  Level Miami Center
Thu 12:50:40 PM 28.4839 -81.0694 169° South 190 219 22,000  Level Miami Center
Thu 12:51:42 PM 28.4328 -81.0581 169° South 189 217 22,000 -242 Level Miami Center
Thu 12:52:44 PM 28.3683 -81.0436 169° South 200 230 21,500 -484 Descending Miami Center
Thu 12:53:46 PM 28.3114 -81.0306 169° South 211 243 21,000 -484 Descending Miami Center
Thu 12:54:48 PM 28.2500 -81.0169 169° South 213 245 20,500 -484 Descending Miami Center
Thu 12:55:50 PM 28.1886 -81.0033 169° South 214 246 20,000 -484 Descending Miami Center
Thu 12:56:52 PM 28.1272 -80.9892 168° South 213 245 19,500 -532 Descending Miami Center
Thu 12:57:54 PM 28.0669 -80.9758 169° South 213 245 18,900 -532 Descending Miami Center
Thu 12:58:56 PM 28.0069 -80.9628 169° South 211 243 18,400 -484 Descending Miami Center
Thu 12:59:58 PM 27.9517 -80.9497 168° South 209 241 17,900 -387 Descending Miami Center
Thu 01:01:00 PM 27.8933 -80.9369 169° South 207 238 17,600 -435 Descending Miami Center
Thu 01:02:02 PM 27.8347 -80.9239 169° South 205 236 17,000 -532 Descending Miami Center
Thu 01:03:04 PM 27.7767 -80.9108 169° South 205 236 16,500 -484 Descending Miami Center
Thu 01:04:06 PM 27.7183 -80.8978 169° South 204 235 16,000 -532 Descending Miami Center
Thu 01:05:08 PM 27.6600 -80.8847 169° South 204 235 15,400 -581 Descending Miami Center
Thu 01:06:10 PM 27.6017 -80.8722 169° South 204 235 14,800 -581 Descending Miami Center
Thu 01:07:12 PM 27.5494 -80.8611 169° South 203 234 14,200 -581 Descending Miami Center
Thu 01:08:14 PM 27.4875 -80.8478 169° South 204 235 13,600 -581 Descending Miami Center
Thu 01:09:16 PM 27.4361 -80.8353 168° South 199 229 13,000 -726 Descending Miami Center
Thu 01:10:18 PM 27.3789 -80.8228 169° South 199 229 12,100 -871 Descending Miami Center
Thu 01:11:20 PM 27.3244 -80.8108 169° South 191 220 11,200 -1,065 Descending Miami Center
Thu 01:12:22 PM 27.2733 -80.7992 169° South 181 208 9,900 -1,258 Descending Miami Center
Thu 01:13:24 PM 27.2189 -80.7872 169° South 185 213 8,600 -1,210 Descending Miami Center
Thu 01:14:26 PM 27.1669 -80.7758 169° South 184 212 7,400 -1,210 Descending Miami Center
Thu 01:15:28 PM 27.1139 -80.7642 169° South 184 212 6,100 -677 Descending Miami Center
Thu 01:16:30 PM 27.0814 -80.7303 137° Southeast 170 196 6,000 -48 Descending Miami Center
Thu 01:17:32 PM 27.0519 -80.6903 130° Southeast 163 188 6,000  Level Miami Center
Thu 01:18:34 PM 27.0236 -80.6525 130° Southeast 155 178 6,000 -96 Level Miami Center
Thu 01:19:37 PM 26.9947 -80.6136 130° Southeast 155 178 5,800 -336 Descending Miami Center
Thu 01:20:39 PM 26.9625 -80.5714 131° Southeast 168 193 5,300 -629 Descending Miami Center
Thu 01:21:41 PM 26.9314 -80.5303 130° Southeast 168 193 4,500 -919 Descending Miami Center
Thu 01:22:43 PM 26.8956 -80.4833 131° Southeast 189 217 3,400 -726 Descending Miami Center
Thu 01:23:45 PM 26.8667 -80.4442 130° Southeast 173 199 3,000 -194 Descending Miami Center
Thu 01:24:47 PM 26.8372 -80.4058 131° Southeast 155 178 3,000  Level Miami Center
Thu 01:25:49 PM 26.8103 -80.3700 130° Southeast 148 170 3,000 -145 Level Miami Center
Thu 01:26:51 PM 26.7814 -80.3333 131° Southeast 150 173 2,700 -242 Descending Miami Center
Thu 01:27:53 PM 26.7497 -80.2906 130° Southeast 162 186 2,500 -146 Descending Miami Center
Thu 01:28:54 PM 26.7225 -80.2547 130° Southeast 153 176 2,400 -293 Descending Miami Center
Thu 01:29:56 PM 26.6939 -80.2181 131° Southeast 153 176 1,900 -339 Descending Miami Center
Thu 01:30:58 PM 26.6642 -80.1767 129° Southeast 158 182 1,700 -194 Descending Miami Center
Thu 01:32:00 PM 26.6233 -80.1295 134° Southeast  Level FlightAware Approximate
Thu 01:39:00 PM 26.5931 -80.0851 130° Southeast  Level Estimated
Thu 01:40:00 PM 26.5931 -80.0851 North  Level Estimated
Thu 01:41:00 PM 26.5931 -80.0851 130° Southeast  Level Estimated
Thu 01:42:00 PM 26.5931 -80.0851 North  Level Estimated
Thu 01:43:00 PM 26.5931 -80.0851 130° Southeast  Level Estimated
Thu 01:44:00 PM 26.5931 -80.0851 North  Level Estimated

Login

Don't have an account? Register now (free) for customized features, flight alerts, and more!